Latest Weather Observations for Blackall

IDQ60801

Issued at 3:32 pm EST Friday 4 September 2015 (issued every 30 minutes, with the page automatically refreshed every 10 minutes)

About weather observations | Map of weather stations | Latest weather observations for QLD | Other Formats
Station Details ID: 036034 Name: BLACKALL AIRPORT Lat: -24.43 Lon: 145.43 Height: 281.3 m
Data from the previous 72 hours. | See also: Recent months at Blackall
Date/Time
EST
Temp
°C
App
Temp
°C
Dew
Point
Rel
Hum
%
Delta-T
°C
Wind Press
QNH
hPa
Press
MSL
hPa
Rain
since 9 am
mm
Dir
 
Spd
km/h
Gust
km/h
Spd
kts
Gust
kts
04/03:30pm 23.7 20.7 0.7 22 10.7 SE 6 17 3 9 1018.0 1016.9 0.0
04/03:00pm 23.2 19.7 1.5 24 10.3 SSE 9 15 5 8 1018.2 1017.1 0.0
04/02:30pm 23.0 18.8 1.9 25 10.1 S 13 22 7 12 1018.5 1017.5 0.0
04/02:00pm 22.3 18.9 1.9 26 9.6 SSW 9 20 5 11 1019.0 1018.0 0.0
04/01:30pm 22.2 17.3 2.3 27 9.5 SSW 17 22 9 12 1019.5 1018.5 0.0
04/01:00pm 21.3 17.2 2.1 28 9.0 S 13 20 7 11 1020.0 1019.0 0.0
04/12:30pm 21.2 16.5 3.0 30 8.7 S 17 28 9 15 1020.5 1019.5 0.0
04/12:00pm 20.6 17.5 3.8 33 8.1 SSE 9 17 5 9 1021.3 1020.3 0.0
04/11:30am 19.5 15.1 2.8 33 7.9 SSE 15 22 8 12 1021.9 1020.9 0.0
04/11:00am 18.6 14.6 2.9 35 7.3 S 13 28 7 15 1022.3 1021.3 0.0
04/10:30am 18.6 14.6 4.8 40 6.7 SE 15 24 8 13 1022.6 1021.6 0.0
04/10:00am 17.2 13.1 4.2 42 6.2 SE 15 24 8 13 1022.9 1021.9 0.0
04/09:30am 17.0 12.6 5.0 45 5.8 SE 17 24 9 13 1023.0 1022.0 0.0
04/09:00am 15.8 10.8 4.5 47 5.3 SE 20 28 11 15 1023.1 1022.1 0.0
04/08:30am 14.2 9.7 4.2 51 4.7 SE 17 22 9 12 1022.8 1021.8 0.0
04/08:00am 13.1 9.3 4.0 54 4.2 SSE 13 17 7 9 1022.6 1021.6 0.0
04/07:30am 11.4 8.3 3.4 58 3.6 S 9 15 5 8 1022.4 1021.4 0.0
04/07:00am 9.8 6.5 2.6 61 3.1 S 9 11 5 6 1022.0 1021.0 0.0
04/06:30am 9.7 6.4 2.6 61 3.1 S 9 11 5 6 1021.3 1020.3 0.0
04/06:00am 10.1 6.8 2.7 60 3.2 SSE 9 13 5 7 1020.9 1019.9 0.0
04/05:30am 9.8 6.5 2.2 59 3.3 S 9 11 5 6 1020.8 1019.8 0.0
04/05:00am 9.7 6.0 2.1 59 3.2 S 11 13 6 7 1020.6 1019.6 0.0
04/04:30am 9.5 6.1 1.7 58 3.3 S 9 11 5 6 1020.4 1019.4 0.0
04/04:00am 9.6 6.1 1.3 56 3.5 SSE 9 11 5 6 1020.3 1019.3 0.0
04/03:30am 9.9 6.8 1.5 56 3.6 S 7 9 4 5 1020.3 1019.3 0.0
04/03:00am 11.1 8.0 1.4 51 4.1 S 7 9 4 5 1020.3 1019.3 0.0
04/02:30am 11.6 8.1 1.5 50 4.3 S 9 11 5 6 1020.1 1019.1 0.0
04/02:00am 11.9 8.4 1.5 49 4.5 S 9 11 5 6 1020.3 1019.3 0.0
04/01:30am 12.2 8.7 1.5 48 4.6 S 9 13 5 7 1020.4 1019.4 0.0
04/01:00am 11.9 8.5 1.8 50 4.4 S 9 11 5 6 1020.4 1019.4 0.0
04/12:30am 12.9 9.5 1.6 46 4.9 SSW 9 11 5 6 1020.6 1019.6 0.0
04/12:00am 13.1 9.6 1.5 45 5.0 SSW 9 11 5 6 1020.6 1019.6 0.0
 
Date/Time
EST
Temp
°C
App
Temp
°C
Dew
Point
Rel
Hum
%
Delta-T
°C
Wind Press
QNH
hPa
Press
MSL
hPa
Rain
since 9 am
mm
Dir
 
Spd
km/h
Gust
km/h
Spd
kts
Gust
kts
03/11:30pm 13.8 10.0 1.5 43 5.4 SSW 11 13 6 7 1020.6 1019.6 0.0
03/11:00pm 14.7 10.8 1.3 40 5.9 SW 11 13 6 7 1020.6 1019.6 0.0
03/10:30pm 15.2 11.3 1.4 39 6.1 SW 11 13 6 7 1020.6 1019.6 0.0
03/10:00pm 15.6 12.2 1.7 39 6.2 SW 9 13 5 7 1020.6 1019.6 0.0
03/09:30pm 15.2 11.5 2.4 42 5.8 SW 11 11 6 6 1020.4 1019.4 0.0
03/09:00pm 15.0 11.7 2.5 43 5.6 WSW 9 9 5 5 1020.1 1019.1 0.0
03/08:30pm 16.2 13.2 1.9 38 6.5 WSW 7 9 4 5 1019.9 1018.9 0.0
03/08:00pm 17.7 14.7 2.1 35 7.1 WSW 7 9 4 5 1019.5 1018.5 0.0
03/07:30pm 18.8 15.8 2.2 33 7.7 W 7 9 4 5 1019.0 1018.0 0.0
03/07:00pm 19.7 16.3 2.1 31 8.2 W 9 11 5 6 1018.6 1017.6 0.0
03/06:30pm 21.0 17.3 2.3 29 8.8 W 11 15 6 8 1018.1 1017.0 0.0
03/06:00pm 22.1 16.8 1.7 26 9.6 W 19 26 10 14 1017.6 1016.6 0.0
03/05:30pm 23.3 18.0 1.6 24 10.3 W 19 28 10 15 1017.3 1016.3 0.0
03/05:00pm 23.8 17.4 0.8 22 10.8 W 24 33 13 18 1017.2 1016.2 0.0
03/04:30pm 24.1 18.7 1.1 22 10.9 W 19 32 10 17 1017.1 1016.1 0.0
03/04:00pm 24.7 19.2 1.6 22 11.1 W 20 32 11 17 1016.9 1015.9 0.0
03/03:30pm 23.8 17.7 0.2 21 11.0 WSW 22 32 12 17 1017.0 1016.0 0.0
03/03:00pm 24.3 17.8 0.6 21 11.1 WSW 24 33 13 18 1017.1 1016.1 0.0
03/02:30pm 23.9 17.9 0.9 22 10.8 W 22 32 12 17 1017.2 1016.2 0.0
03/02:00pm 24.1 18.5 1.1 22 10.9 W 20 35 11 19 1017.5 1016.5 0.0
03/01:30pm 23.4 17.7 0.5 22 10.7 W 20 39 11 21 1018.1 1017.0 0.0
03/01:00pm 22.2 16.1 0.1 23 10.1 W 22 35 12 19 1018.5 1017.5 0.0
03/12:30pm 21.6 16.3 -0.4 23 9.9 WSW 17 30 9 16 1018.9 1017.9 0.0
03/12:00pm 21.4 15.7 0.6 25 9.5 WSW 20 33 11 18 1019.3 1018.3 0.0
03/11:30am 20.6 14.9 0.4 26 9.2 WSW 20 32 11 17 1019.9 1018.9 0.0
03/11:00am 19.8 14.3 0.3 27 8.8 W 19 32 10 17 1020.4 1019.4 0.0
03/10:30am 19.2 13.6 1.2 30 8.2 WSW 20 28 11 15 1020.6 1019.6 0.0
03/10:00am 18.4 12.8 1.0 31 7.8 WSW 20 32 11 17 1021.2 1020.2 0.0
03/09:30am 18.0 12.0 1.1 32 7.6 WSW 22 33 12 18 1021.2 1020.2 0.0
03/09:00am 17.3 12.2 0.9 33 7.3 WSW 17 24 9 13 1021.0 1020.0 0.0
03/08:30am 16.0 11.9 -0.2 33 7.0 W 11 19 6 10 1020.8 1019.8 0.0
03/08:00am 15.1 11.9 -0.6 34 6.6 NNW 6 9 3 5 1020.5 1019.5 0.0
03/07:30am 12.5 10.4 -0.7 40 5.4 CALM 0 4 0 2 1019.9 1018.9 0.0
03/07:00am 9.3 7.4 0.5 54 3.6 CALM 0 0 0 0 1019.4 1018.4 0.0
03/06:30am 10.0 6.5 -1.7 44 4.6 WNW 7 9 4 5 1019.0 1018.0 0.0
03/06:00am 10.3 6.8 -2.7 40 5.0 W 6 7 3 4 1018.5 1017.5 0.0
03/05:30am 11.6 8.0 -3.7 34 5.8 WSW 6 6 3 3 1018.0 1016.9 0.0
03/05:00am 13.3 9.2 -3.4 31 6.5 WSW 9 11 5 6 1017.6 1016.6 0.0
03/04:30am 14.2 9.7 -3.6 29 7.0 SW 11 15 6 8 1017.3 1016.3 0.0
03/04:00am 15.0 10.1 -3.8 27 7.4 SW 13 20 7 11 1017.1 1016.1 0.0
03/03:30am 15.3 10.7 -4.1 26 7.6 SW 11 15 6 8 1016.9 1015.9 0.0
03/03:00am 16.6 10.2 -5.2 22 8.5 SW 20 26 11 14 1016.8 1015.8 0.0
03/02:30am 17.4 10.1 -5.8 20 9.0 WSW 24 35 13 19 1016.4 1015.4 0.0
03/02:00am 17.7 11.6 -2.6 25 8.4 SW 20 26 11 14 1016.2 1015.2 0.0
03/01:30am 18.5 13.4 0.6 30 8.0 SW 17 20 9 11 1016.1 1015.1 0.0
03/01:00am 19.6 14.0 0.1 27 8.7 SW 19 28 10 15 1015.7 1014.7 0.0
03/12:30am 19.9 15.3 1.8 30 8.4 WSW 15 20 8 11 1015.6 1014.6 0.0
03/12:00am 20.8 15.9 2.1 29 8.8 WSW 17 24 9 13 1015.5 1014.5 0.0
 
Date/Time
EST
Temp
°C
App
Temp
°C
Dew
Point
Rel
Hum
%
Delta-T
°C
Wind Press
QNH
hPa
Press
MSL
hPa
Rain
since 9 am
mm
Dir
 
Spd
km/h
Gust
km/h
Spd
kts
Gust
kts
02/11:30pm 21.8 15.7 3.0 29 9.1 WSW 24 39 13 21 1015.2 1014.1 0.0
02/11:00pm 22.3 17.2 3.9 30 9.1 WSW 20 28 11 15 1014.8 1013.7 0.0
02/10:30pm 22.9 17.6 4.9 31 9.1 WSW 22 32 12 17 1014.6 1013.5 0.0
02/10:00pm 23.5 17.8 4.9 30 9.4 WSW 24 35 13 19 1013.9 1012.9 0.0
02/09:30pm 24.6 20.0 5.4 29 9.9 WSW 19 26 10 14 1013.4 1012.4 0.0
02/09:00pm 25.1 21.3 5.8 29 10.0 W 15 22 8 12 1012.8 1011.8 0.0
02/08:30pm 25.4 21.4 5.1 27 10.4 WSW 15 20 8 11 1012.4 1011.4 0.0
02/08:00pm 26.1 21.6 4.0 24 11.2 WSW 17 20 9 11 1012.3 1011.3 0.0
02/07:30pm 27.0 21.7 2.8 21 12.1 WSW 20 30 11 16 1012.0 1010.9 0.0
02/07:00pm 28.8 22.6 -0.4 15 13.9 W 22 39 12 21 1011.4 1010.3 0.0
02/06:30pm 29.0 23.6 -1.2 14 14.2 W 17 24 9 13 1011.0 1009.9 0.0
02/06:00pm 29.6 24.3 -0.7 14 14.5 W 17 24 9 13 1010.6 1009.5 0.0
02/05:30pm 30.5 24.2 -1.0 13 15.0 W 22 35 12 19 1010.3 1009.3 0.0
02/05:00pm 31.2 26.4 2.4 16 14.6 NW 17 28 9 15 1010.1 1009.1 0.0
02/04:30pm 31.0 26.6 4.7 19 13.9 NW 17 24 9 13 1010.0 1009.0 0.0
02/04:00pm 31.2 27.0 5.6 20 13.7 NW 17 28 9 15 1010.0 1009.0 0.0
02/03:30pm 31.3 26.7 5.7 20 13.7 NW 19 30 10 16 1010.2 1009.2 0.0
02/03:00pm 30.7 26.7 6.6 22 13.1 NW 17 28 9 15 1010.6 1009.5 0.0
02/02:30pm 30.5 26.2 7.7 24 12.6 NNW 20 32 11 17 1010.7 1009.6 0.0
02/02:00pm 30.4 25.4 8.2 25 12.4 NNW 24 39 13 21 1011.0 1009.9 0.0
02/01:30pm 30.4 24.9 9.3 27 12.0 NNW 28 48 15 26 1011.4 1010.3 0.0
02/01:01pm 30.6 24.0 7.7 24 12.7 NNW 32 52 17 28 1011.8 1010.7 0.0
02/01:00pm 30.6 24.4 7.7 24 12.7 NNW 30 43 16 23 1011.8 1010.7 0.0
02/12:40pm 31.0 24.6 8.7 25 12.6 N 32 54 17 29 1012.1 1011.0 0.0
02/12:30pm 30.7 24.7 10.1 28 11.8 N 32 46 17 25 1012.5 1011.5 0.0
02/12:00pm 30.0 24.0 10.0 29 11.4 N 32 44 17 24 1013.1 1012.1 0.0
02/11:49am 30.1 24.1 10.1 29 11.5 N 32 50 17 27 1013.4 1012.4 0.0
02/11:30am 29.5 24.8 13.3 37 9.7 N 30 37 16 20 1013.8 1012.8 0.0
02/11:00am 28.1 23.0 12.0 36 9.4 N 30 43 16 23 1014.4 1013.3 0.0
02/10:30am 27.2 22.9 13.2 42 8.3 N 28 37 15 20 1015.1 1014.0 0.0
02/10:00am 25.0 20.4 13.5 48 6.8 N 30 41 16 22 1015.0 1013.9 0.0
02/09:30am 24.5 21.9 14.9 55 5.8 NNE 22 32 12 17 1015.5 1014.5 0.0
02/09:00am 22.5 19.1 13.6 57 5.2 NNE 24 35 13 19 1015.7 1014.7 0.0
02/08:30am 20.7 17.6 12.1 58 4.9 NNE 20 30 11 16 1015.6 1014.6 0.0
02/08:00am 19.2 15.6 9.9 55 5.0 NNE 19 28 10 15 1015.5 1014.5 0.0
02/07:30am 18.5 14.7 9.0 54 5.0 NNE 19 24 10 13 1015.2 1014.1 0.0
02/07:00am 16.4 13.1 6.2 51 5.0 NE 13 17 7 9 1015.2 1014.1 0.0
02/06:30am 14.9 11.7 5.1 52 4.7 ENE 11 13 6 7 1015.3 1014.3 0.0
02/06:00am 14.7 11.4 4.7 51 4.7 NE 11 13 6 7 1015.1 1014.0 0.0
02/05:30am 14.2 10.8 4.2 51 4.7 ENE 11 13 6 7 1014.7 1013.6 0.0
02/05:00am 13.8 10.7 3.6 50 4.7 ENE 9 11 5 6 1014.7 1013.6 0.0
02/04:30am 14.0 11.2 2.9 47 5.0 ENE 7 9 4 5 1014.6 1013.5 0.0
02/04:00am 15.2 11.6 3.0 44 5.6 ENE 11 15 6 8 1014.6 1013.5 0.0
02/03:30am 15.7 11.3 2.8 42 5.9 ENE 15 19 8 10 1014.4 1013.3 0.0
02/03:00am 14.6 10.7 3.4 47 5.1 ENE 13 15 7 8 1015.2 1014.1 0.0
02/02:30am 13.6 10.5 3.4 50 4.7 E 9 11 5 6 1015.3 1014.3 0.0
02/02:00am 13.4 10.0 2.0 46 5.0 ESE 9 9 5 5 1015.5 1014.5 0.0
02/01:30am 13.4 10.1 2.3 47 4.9 ESE 9 9 5 5 1015.7 1014.7 0.0
02/01:00am 13.5 10.6 2.4 47 4.9 ESE 7 7 4 4 1015.7 1014.7 0.0
02/12:30am 14.2 11.3 2.8 46 5.2 E 7 9 4 5 1015.4 1014.4 0.0
02/12:00am 14.0 11.4 4.0 51 4.6 ESE 7 9 4 5 1015.5 1014.5 0.0
 
Date/Time
EST
Temp
°C
App
Temp
°C
Dew
Point
Rel
Hum
%
Delta-T
°C
Wind Press
QNH
hPa
Press
MSL
hPa
Rain
since 9 am
mm
Dir
 
Spd
km/h
Gust
km/h
Spd
kts
Gust
kts
01/11:30pm 13.8 11.2 4.4 53 4.4 E 7 9 4 5 1015.4 1014.4 0.0
01/11:00pm 13.7 12.3 3.8 51 4.6 CALM 0 0 0 0 1015.4 1014.4 0.0
01/10:30pm 14.6 12.7 4.9 52 4.6 ENE 4 7 2 4 1015.3 1014.3 0.0
01/10:00pm 15.8 13.1 3.9 45 5.6 E 7 9 4 5 1015.2 1014.1 0.0
01/09:30pm 15.9 13.2 3.7 44 5.7 ESE 7 9 4 5 1015.1 1014.0 0.0
01/09:00pm 15.5 12.4 3.6 45 5.5 ESE 9 9 5 5 1015.1 1014.0 0.0
01/08:30pm 16.3 14.8 3.0 41 6.1 CALM 0 0 0 0 1014.8 1013.7 0.0
01/08:00pm 17.3 15.8 3.2 39 6.6 CALM 0 0 0 0 1014.6 1013.5 0.0
01/07:30pm 18.6 16.9 2.0 33 7.7 CALM 0 0 0 0 1014.2 1013.1 0.0
01/07:00pm 19.3 17.7 2.2 32 8.0 CALM 0 0 0 0 1013.8 1012.8 0.0
01/06:30pm 22.0 20.0 -0.1 23 10.1 CALM 0 0 0 0 1013.7 1012.7 0.0
01/06:00pm 24.9 21.5 -1.8 17 12.0 W 6 9 3 5 1013.5 1012.5 0.0
01/05:30pm 26.6 22.6 -2.1 15 13.0 W 9 15 5 8 1013.4 1012.4 0.0
01/05:00pm 26.7 22.6 -3.0 14 13.3 NW 9 26 5 14 1013.2 1012.2 0.0
01/04:30pm 26.7 21.8 -3.0 14 13.3 WNW 13 22 7 12 1013.1 1012.1 0.0
01/04:00pm 26.7 22.6 -3.0 14 13.3 NNW 9 19 5 10 1013.2 1012.2 0.0

Other Formats:

Comma delimited format used in spreadsheet applications
http://www.bom.gov.au/fwo/IDQ60801/IDQ60801.95351.axf

JavaScript Object Notation format (JSON) in row-major order
http://www.bom.gov.au/fwo/IDQ60801/IDQ60801.95351.json